Terminal Aerodrome Forecast
Issued by NWS Quad Cities IA IL

Home | Current Version | Previous Version | Text Only | Print | Product List | Glossary On
Versions: 1 2 3 4 5 6 7 8 9 10 11 12 13 14 15 16 17 18 19 20 21 22 23 24 25 26 27 28 29 30
000
FTUS43 KDVN 220531
TAFDBQ
TAF
KDBQ 220531Z 2206/2306 06012KT 6SM -SHRA BR OVC030
     FM220900 07013KT 4SM -TSRA BR OVC009CB
     FM221300 09011KT 2SM -SHRA OVC005
     FM221700 14012KT 3/4SM BR OVC004 WS020/21035KT
     FM222000 17012KT P6SM BKN020
     FM230100 19013KT 4SM -TSRA OVC025CB
     FM230400 27014KT 4SM -RA BR OVC007=

USA.gov is the U.S. government's official web portal to all federal, state and local government web resources and services.